Terminal Aerodrome Forecast
Issued by NWS Northern Indiana

Home | Current Version | Previous Version | Graphics & Text | Print | Product List | Glossary On
Versions: 1 2 3 4 5 6 7 8 9 10 11 12 13
413
FTUS43 KIWX 161700 AAA
TAFFWA
TAF AMD
KFWA 161700Z 1617/1712 23010KT P6SM SKC
     FM170000 19005KT P6SM FEW250
     FM171000 14004KT 5SM BR BKN250=

USA.gov is the U.S. government's official web portal to all federal, state and local government web resources and services.